Time;durP1;ratioP1;P1;durP2;ratioP2;P2;SDS_P1;SDS_P2;PMS_P1;PMS_P2;Temp;Humidity;BMP_temperature;BMP_pressure;BME280_temperature;BME280_humidity;BME280_pressure;Samples;Min_cycle;Max_cycle;Signal;HPM_P1;HPM_P2
2022/12/17 13:08:10;;;;;;;;;;;0.80;99.90;;;;;;5075737;28;19909;-76
2022/12/17 13:10:44;;;;;;;;;;;0.70;99.90;;;;;;5074886;28;19904;-75
2022/12/17 13:13:32;;;;;;;;;;;0.80;99.90;;;;;;5073864;28;19904;-76
2022/12/17 13:16:24;;;;;;;;;;;0.80;99.90;;;;;;5056712;28;19930;-76
2022/12/17 13:19:09;;;;;;;;;;;0.80;99.90;;;;;;5078463;28;19904;-75
2022/12/17 13:21:38;;;;;;;;;;;0.90;99.90;;;;;;5060440;28;19914;-76
2022/12/17 13:24:23;;;;;;;;;;;0.90;99.90;;;;;;5078829;28;19912;-75
2022/12/17 13:26:48;;;;;;;;;;;3.80;99.90;;;;;;5077277;28;20355;-75
2022/12/17 13:29:36;;;;;;;;;;;1.00;99.90;;;;;;5084402;22;19920;-76
2022/12/17 13:32:10;;;;;;;;;;;1.00;99.90;;;;;;5072447;28;19920;-75
2022/12/17 13:34:56;;;;;;;;;;;0.90;99.90;;;;;;5059759;28;19910;-75
2022/12/17 13:37:24;;;;;;;;;;;0.80;99.90;;;;;;5076479;28;20283;-75
2022/12/17 13:40:05;;;;;;;;;;;0.70;99.90;;;;;;5077425;28;19908;-76
2022/12/17 13:42:34;;;;;;;;;;;0.70;99.90;;;;;;5077651;28;20337;-75
2022/12/17 13:45:07;;;;;;;;;;;0.60;99.90;;;;;;5060563;28;19942;-75
2022/12/17 13:47:34;;;;;;;;;;;0.60;99.90;;;;;;5078085;28;19915;-74
2022/12/17 13:50:02;;;;;;;;;;;0.60;99.90;;;;;;5060164;28;19905;-74
2022/12/17 13:52:33;;;;;;;;;;;0.60;99.90;;;;;;5078180;28;19904;-74
2022/12/17 13:55:18;;;;;;;;;;;0.50;99.90;;;;;;5060333;28;19904;-74
2022/12/17 13:57:44;;;;;;;;;;;0.40;99.90;;;;;;5077947;28;19940;-73
2022/12/17 14:00:21;;;;;;;;;;;0.40;99.90;;;;;;5059819;28;19958;-73
2022/12/17 14:02:47;;;;;;;;;;;2.70;99.90;;;;;;5059675;28;19916;-73
2022/12/17 14:05:30;;;;;;;;;;;0.40;99.90;;;;;;5078143;28;19904;-74
2022/12/17 14:08:12;;;;;;;;;;;0.40;99.90;;;;;;5059142;28;19915;-74
2022/12/17 14:10:43;;;;;;;;;;;0.40;99.90;;;;;;5076756;28;20006;-72
2022/12/17 14:13:14;;;;;;;;;;;0.40;99.90;;;;;;5076729;28;19939;-73
2022/12/17 14:15:44;;;;;;;;;;;0.40;99.90;;;;;;5058548;28;20394;-73
2022/12/17 14:18:13;;;;;;;;;;;0.40;99.90;;;;;;5058384;28;19912;-72
2022/12/17 14:20:41;;;;;;;;;;;0.40;99.90;;;;;;5077276;28;19904;-74
2022/12/17 14:23:13;;;;;;;;;;;0.20;99.90;;;;;;5077408;28;19974;-74
2022/12/17 14:25:45;;;;;;;;;;;0.20;99.90;;;;;;5078401;28;19904;-73
2022/12/17 14:31:56;;;;;;;;;;;0.20;99.90;;;;;;5054578;28;19916;-74
2022/12/17 14:34:29;;;;;;;;;;;0.10;99.90;;;;;;5077690;28;19904;-75
2022/12/17 14:37:01;;;;;;;;;;;0.00;99.90;;;;;;5058281;28;19908;-73
2022/12/17 14:39:36;;;;;;;;;;;-0.10;99.90;;;;;;5076456;28;19911;-73
2022/12/17 14:42:28;;;;;;;;;;;-0.10;99.90;;;;;;5058417;28;19916;-73
2022/12/17 14:44:56;;;;;;;;;;;-0.20;99.90;;;;;;5076868;28;19926;-73
2022/12/17 14:47:33;;;;;;;;;;;-0.30;99.90;;;;;;5058255;28;20278;-73
2022/12/17 14:49:59;;;;;;;;;;;-0.30;99.90;;;;;;5058685;28;19904;-73
2022/12/17 14:52:29;;;;;;;;;;;-0.40;99.90;;;;;;5058585;28;19944;-73
2022/12/17 14:54:58;;;;;;;;;;;-0.40;99.90;;;;;;5075840;28;19931;-73
2022/12/17 14:57:46;;;;;;;;;;;;;;;;;;;;;
2022/12/17 15:00:14;;;;;;;;;;;-0.50;99.90;;;;;;5077250;28;19905;-74
2022/12/17 15:02:43;;;;;;;;;;;-0.50;99.90;;;;;;5058618;28;19951;-74
2022/12/17 15:08:05;;;;;;;;;;;-0.60;99.90;;;;;;5076617;28;19911;-74
2022/12/17 15:10:31;;;;;;;;;;;-0.60;99.90;;;;;;5077466;22;20028;-73
2022/12/17 15:12:56;;;;;;;;;;;-0.70;99.90;;;;;;5034620;28;19952;-73
2022/12/17 15:15:22;;;;;;;;;;;-0.60;99.90;;;;;;5036362;28;19905;-73
2022/12/17 15:17:47;;;;;;;;;;;-0.70;99.90;;;;;;5035506;28;19912;-73
2022/12/17 15:20:17;;;;;;;;;;;-0.80;99.90;;;;;;5034125;28;19905;-73
2022/12/17 15:22:42;;;;;;;;;;;-0.80;99.90;;;;;;5034435;28;19958;-73
2022/12/17 15:25:11;;;;;;;;;;;-0.80;99.90;;;;;;5035582;28;20000;-73
2022/12/17 15:27:37;;;;;;;;;;;-0.80;99.90;;;;;;5034122;28;19958;-73
2022/12/17 15:30:03;;;;;;;;;;;-0.90;99.90;;;;;;5034365;28;19991;-73
2022/12/17 15:32:28;;;;;;;;;;;-0.80;99.90;;;;;;5034013;28;19905;-73
2022/12/17 15:34:54;;;;;;;;;;;-0.90;99.90;;;;;;5034438;28;19912;-73
2022/12/17 15:37:19;;;;;;;;;;;-0.90;99.90;;;;;;5033421;28;19944;-73
2022/12/17 15:39:45;;;;;;;;;;;-0.90;99.90;;;;;;5034479;28;19905;-73
2022/12/17 15:44:55;;;;;;;;;;;-0.90;99.90;;;;;;5035026;28;19955;-74
2022/12/17 15:47:20;;;;;;;;;;;-0.90;99.90;;;;;;5033501;28;20260;-73
2022/12/17 15:49:46;;;;;;;;;;;-1.00;99.90;;;;;;5033445;28;19999;-74
2022/12/17 15:52:13;;;;;;;;;;;-1.00;99.90;;;;;;5033276;28;20382;-74
2022/12/17 15:54:43;;;;;;;;;;;-1.00;99.90;;;;;;5034673;28;20016;-76
2022/12/17 15:57:09;;;;;;;;;;;-1.00;99.90;;;;;;5033664;28;19905;-76
2022/12/17 15:59:35;;;;;;;;;;;-1.00;99.90;;;;;;5034631;28;19905;-76
2022/12/17 16:02:00;;;;;;;;;;;-1.00;99.90;;;;;;5034401;28;19909;-75
2022/12/17 16:04:26;;;;;;;;;;;-1.00;99.90;;;;;;5034655;28;19912;-76
2022/12/17 16:06:51;;;;;;;;;;;-1.00;99.90;;;;;;5035784;28;19905;-77
2022/12/17 16:09:25;;;;;;;;;;;-1.00;99.90;;;;;;5033966;28;19905;-75
2022/12/17 16:11:52;;;;;;;;;;;-0.90;99.90;;;;;;4997314;28;19972;-75
2022/12/17 16:14:17;;;;;;;;;;;-0.90;99.90;;;;;;5014731;28;19906;-74
2022/12/17 16:16:43;;;;;;;;;;;-1.00;99.90;;;;;;5014611;28;20275;-74
2022/12/17 16:19:09;;;;;;;;;;;-1.00;99.90;;;;;;5014570;28;19905;-74
2022/12/17 16:21:34;;;;;;;;;;;-1.10;99.90;;;;;;5015251;28;19916;-74
2022/12/17 16:24:00;;;;;;;;;;;-1.10;99.90;;;;;;5014874;28;19905;-74
2022/12/17 16:26:25;;;;;;;;;;;-1.20;99.90;;;;;;4996939;28;20004;-75
2022/12/17 16:28:51;;;;;;;;;;;-1.10;99.90;;;;;;5014641;28;20257;-74
2022/12/17 16:31:16;;;;;;;;;;;-1.10;99.90;;;;;;4997641;28;19913;-73
2022/12/17 16:33:43;;;;;;;;;;;-1.10;99.90;;;;;;5014467;28;19952;-73
2022/12/17 16:36:10;;;;;;;;;;;-1.10;99.90;;;;;;5014435;28;19905;-73
2022/12/17 16:38:41;;;;;;;;;;;-1.10;99.90;;;;;;5014615;28;19933;-74
2022/12/17 16:41:07;;;;;;;;;;;-1.20;99.90;;;;;;4996819;28;19909;-74
2022/12/17 16:43:33;;;;;;;;;;;-1.10;99.90;;;;;;4996513;28;19963;-74
2022/12/17 16:45:58;;;;;;;;;;;-1.10;99.90;;;;;;4996622;28;19909;-74
2022/12/17 16:48:24;;;;;;;;;;;-1.10;99.90;;;;;;4996648;28;19956;-74
2022/12/17 16:50:50;;;;;;;;;;;-1.20;99.90;;;;;;5015445;28;19913;-74
2022/12/17 16:53:18;;;;;;;;;;;-1.20;99.90;;;;;;5017863;28;20287;-75
2022/12/17 16:55:45;;;;;;;;;;;-1.10;99.90;;;;;;5018306;28;19906;-74
2022/12/17 16:58:10;;;;;;;;;;;-1.20;99.90;;;;;;5018125;28;19912;-74
2022/12/17 17:00:36;;;;;;;;;;;-1.20;99.90;;;;;;5017898;28;20288;-74
2022/12/17 17:03:02;;;;;;;;;;;-1.20;99.90;;;;;;5000335;28;20028;-74
2022/12/17 17:05:30;;;;;;;;;;;-1.30;99.90;;;;;;5000585;28;19905;-74
2022/12/17 17:07:56;;;;;;;;;;;-1.20;99.90;;;;;;5018489;28;19905;-74
2022/12/17 17:10:21;;;;;;;;;;;-1.20;99.90;;;;;;5017772;28;19920;-74
2022/12/17 17:12:51;;;;;;;;;;;-1.30;99.90;;;;;;5018655;28;19905;-74
2022/12/17 17:15:16;;;;;;;;;;;-1.30;99.90;;;;;;5000183;28;19905;-74
2022/12/17 17:17:41;;;;;;;;;;;-1.30;99.90;;;;;;5017596;28;19912;-74
2022/12/17 17:20:07;;;;;;;;;;;-1.30;99.90;;;;;;4999960;28;19948;-74
2022/12/17 17:22:33;;;;;;;;;;;-1.30;99.90;;;;;;5017571;28;19919;-74
2022/12/17 17:24:58;;;;;;;;;;;-1.30;99.90;;;;;;5000427;28;19996;-74
2022/12/17 17:27:24;;;;;;;;;;;-1.30;99.90;;;;;;5017868;28;19905;-74
2022/12/17 17:29:49;;;;;;;;;;;-1.40;99.90;;;;;;5000494;28;19910;-74
2022/12/17 17:32:14;;;;;;;;;;;-1.40;99.90;;;;;;4999931;28;20300;-74
2022/12/17 17:34:40;;;;;;;;;;;-1.40;99.90;;;;;;4999290;28;19912;-74
2022/12/17 17:37:06;;;;;;;;;;;-1.40;99.90;;;;;;5017389;28;19905;-74
2022/12/17 17:39:32;;;;;;;;;;;-1.50;99.90;;;;;;5017578;28;19905;-74
2022/12/17 17:41:58;;;;;;;;;;;-1.50;99.90;;;;;;5017342;28;19910;-74
2022/12/17 17:44:24;;;;;;;;;;;-1.50;99.90;;;;;;4999659;28;19905;-74
2022/12/17 17:46:49;;;;;;;;;;;-1.50;99.90;;;;;;5017660;28;19916;-74
2022/12/17 17:49:15;;;;;;;;;;;-1.50;99.90;;;;;;4999599;28;20284;-74
2022/12/17 17:51:41;;;;;;;;;;;-1.40;99.90;;;;;;5017307;28;20391;-74
2022/12/17 17:54:07;;;;;;;;;;;-1.40;99.90;;;;;;5017548;28;19906;-74
2022/12/17 17:56:33;;;;;;;;;;;-1.40;99.90;;;;;;5017727;28;19916;-74
2022/12/17 17:59:00;;;;;;;;;;;-1.50;99.90;;;;;;5017616;28;19905;-74
2022/12/17 18:01:27;;;;;;;;;;;-1.50;99.90;;;;;;5000204;28;19916;-74
2022/12/17 18:03:56;;;;;;;;;;;-1.50;99.90;;;;;;5016333;28;20436;-74
2022/12/17 18:06:22;;;;;;;;;;;-1.50;99.90;;;;;;4999143;28;19911;-74
2022/12/17 18:08:48;;;;;;;;;;;-1.50;99.90;;;;;;4999876;28;19953;-74
2022/12/17 18:11:14;;;;;;;;;;;-1.50;99.90;;;;;;5030139;28;20016;-74
2022/12/17 18:13:55;;;;;;;;;;;-1.50;99.90;;;;;;5037398;28;19909;-74
2022/12/17 18:16:32;;;;;;;;;;;-1.60;99.90;;;;;;5036964;28;19905;-74
2022/12/17 18:18:59;;;;;;;;;;;-1.60;99.90;;;;;;5035862;28;19997;-74
2022/12/17 18:21:25;;;;;;;;;;;-1.50;99.90;;;;;;5035523;28;19909;-74
2022/12/17 18:23:55;;;;;;;;;;;-1.50;99.90;;;;;;5036954;28;19912;-74
2022/12/17 18:26:21;;;;;;;;;;;-1.50;99.90;;;;;;5037474;28;19912;-74
2022/12/17 18:28:47;;;;;;;;;;;-1.50;99.90;;;;;;5036646;28;20441;-74
2022/12/17 18:31:17;;;;;;;;;;;-1.50;99.90;;;;;;5036912;28;19916;-74
2022/12/17 18:33:44;;;;;;;;;;;-1.50;99.90;;;;;;5036473;28;19940;-74
2022/12/17 18:36:21;;;;;;;;;;;-1.50;99.90;;;;;;5036200;28;19916;-74
2022/12/17 18:38:47;;;;;;;;;;;-1.60;99.90;;;;;;5036311;28;20406;-73
2022/12/17 18:44:01;;;;;;;;;;;-1.70;99.90;;;;;;5037005;28;20024;-74
2022/12/17 18:46:27;;;;;;;;;;;-1.70;99.90;;;;;;5035866;28;19905;-75
2022/12/17 18:48:55;;;;;;;;;;;-1.80;99.90;;;;;;5034798;28;20360;-74
2022/12/17 18:51:20;;;;;;;;;;;-1.70;99.90;;;;;;5035299;28;20267;-73
2022/12/17 18:53:46;;;;;;;;;;;-1.70;99.90;;;;;;5035007;28;19905;-74
2022/12/17 18:56:12;;;;;;;;;;;-1.70;99.90;;;;;;5036212;28;19912;-74
2022/12/17 18:58:37;;;;;;;;;;;-1.70;99.90;;;;;;5034752;28;19912;-74
2022/12/17 19:01:03;;;;;;;;;;;-1.80;99.90;;;;;;5035998;28;20279;-73
2022/12/17 19:03:29;;;;;;;;;;;-1.80;99.90;;;;;;5034611;28;19905;-74
2022/12/17 19:05:54;;;;;;;;;;;-1.70;99.90;;;;;;5035906;28;19912;-74
2022/12/17 19:08:19;;;;;;;;;;;-1.70;99.90;;;;;;5035618;28;19952;-74
2022/12/17 19:10:45;;;;;;;;;;;-1.70;99.90;;;;;;5022257;28;20360;-74
2022/12/17 19:13:10;;;;;;;;;;;-1.70;99.90;;;;;;5015559;28;20307;-74
2022/12/17 19:15:36;;;;;;;;;;;-1.70;99.90;;;;;;4996525;28;19905;-75
2022/12/17 19:18:01;;;;;;;;;;;-0.20;99.90;;;;;;4998084;28;19905;-74
2022/12/17 19:20:27;;;;;;;;;;;-1.70;99.90;;;;;;4998092;28;20276;-74
2022/12/17 19:22:52;;;;;;;;;;;-1.80;99.90;;;;;;5016023;28;19910;-74
2022/12/17 19:25:18;;;;;;;;;;;-1.70;99.90;;;;;;4998276;28;20004;-76
2022/12/17 19:27:43;;;;;;;;;;;-1.80;99.90;;;;;;4998182;28;19912;-75
2022/12/17 19:30:09;;;;;;;;;;;-1.80;99.90;;;;;;4997712;28;20315;-75
2022/12/17 19:32:34;;;;;;;;;;;-1.80;99.90;;;;;;4998077;28;19971;-75
2022/12/17 19:35:00;;;;;;;;;;;-1.80;99.90;;;;;;4997955;28;19987;-75
2022/12/17 19:37:25;;;;;;;;;;;-1.80;99.90;;;;;;4997693;28;19905;-75
2022/12/17 19:39:51;;;;;;;;;;;-1.80;99.90;;;;;;5014733;28;20272;-75
2022/12/17 19:42:35;;;;;;;;;;;-1.90;99.90;;;;;;4997105;28;19916;-75
2022/12/17 19:45:00;;;;;;;;;;;-1.90;99.90;;;;;;5015211;28;19928;-75
2022/12/17 19:47:27;;;;;;;;;;;-1.90;99.90;;;;;;5014607;28;19910;-75
2022/12/17 19:49:53;;;;;;;;;;;-1.90;99.90;;;;;;4997272;28;19909;-77
2022/12/17 19:52:18;;;;;;;;;;;-1.90;99.90;;;;;;4997457;28;20257;-75
2022/12/17 19:54:44;;;;;;;;;;;-1.90;99.90;;;;;;4996927;28;19956;-75
2022/12/17 19:57:09;;;;;;;;;;;-1.90;99.90;;;;;;5014795;28;20324;-76
2022/12/17 19:59:35;;;;;;;;;;;-1.90;99.90;;;;;;5015389;28;19912;-77
2022/12/17 20:02:02;;;;;;;;;;;-1.90;99.90;;;;;;4997646;28;20356;-77
2022/12/17 20:04:27;;;;;;;;;;;-1.90;99.90;;;;;;4997796;28;19909;-77
2022/12/17 20:06:53;;;;;;;;;;;-1.90;99.90;;;;;;4997818;28;20004;-77
2022/12/17 20:09:19;;;;;;;;;;;-1.90;99.90;;;;;;5015012;28;19905;-76
2022/12/17 20:11:44;;;;;;;;;;;-2.00;99.90;;;;;;5015892;28;19909;-76
2022/12/17 20:14:14;;;;;;;;;;;-0.80;99.90;;;;;;5015539;28;20009;-77
2022/12/17 20:16:41;;;;;;;;;;;-2.00;99.90;;;;;;5014931;28;19924;-75
2022/12/17 20:19:07;;;;;;;;;;;-2.10;99.90;;;;;;5014876;28;19905;-77
2022/12/17 20:21:32;;;;;;;;;;;-2.10;99.90;;;;;;5015372;28;20000;-76
2022/12/17 20:23:58;;;;;;;;;;;-2.10;99.90;;;;;;5014916;28;19943;-76
2022/12/17 20:26:24;;;;;;;;;;;-2.10;99.90;;;;;;5001073;28;20368;-76
2022/12/17 20:28:49;;;;;;;;;;;-2.20;99.90;;;;;;5021470;28;19909;-76
2022/12/17 20:31:15;;;;;;;;;;;-2.20;99.90;;;;;;5021831;28;19906;-77
2022/12/17 20:33:40;;;;;;;;;;;-2.20;99.90;;;;;;5021693;28;19912;-76
2022/12/17 20:36:08;;;;;;;;;;;-2.20;99.90;;;;;;5021459;28;19905;-77
2022/12/17 20:38:33;;;;;;;;;;;-2.20;99.90;;;;;;5003014;28;19949;-77
2022/12/17 20:40:59;;;;;;;;;;;-1.10;99.90;;;;;;5021610;28;19920;-77
2022/12/17 20:43:24;;;;;;;;;;;-2.20;99.90;;;;;;5021266;28;20375;-77
2022/12/17 20:45:50;;;;;;;;;;;;;;;;;;5021831;28;19909;-76
2022/12/17 20:48:16;;;;;;;;;;;-2.30;99.90;;;;;;5003133;28;20356;-75
2022/12/17 20:50:42;;;;;;;;;;;-2.30;99.90;;;;;;5020676;28;19912;-75
2022/12/17 20:53:07;;;;;;;;;;;-2.30;99.90;;;;;;5020498;28;20252;-75
2022/12/17 20:55:33;;;;;;;;;;;-2.40;99.90;;;;;;5020556;28;19914;-77
2022/12/17 20:57:58;;;;;;;;;;;-2.30;99.90;;;;;;5020333;28;19913;-75
2022/12/17 21:00:23;;;;;;;;;;;-2.40;99.90;;;;;;5020079;28;19909;-74
2022/12/17 21:02:50;;;;;;;;;;;-2.40;99.90;;;;;;5020135;28;20379;-75
2022/12/17 21:05:16;;;;;;;;;;;-2.30;99.90;;;;;;5002854;28;19905;-75
2022/12/17 21:07:45;;;;;;;;;;;-2.40;99.90;;;;;;5002546;28;19917;-75
2022/12/17 21:10:11;;;;;;;;;;;-2.50;99.90;;;;;;5020093;28;20396;-75
2022/12/17 21:15:20;;;;;;;;;;;-2.60;99.90;;;;;;5020191;28;19916;-75
2022/12/17 21:17:46;;;;;;;;;;;-2.50;99.90;;;;;;5002543;28;19909;-75
2022/12/17 21:20:12;;;;;;;;;;;-2.50;99.90;;;;;;5002489;28;19906;-75
2022/12/17 21:22:38;;;;;;;;;;;-2.50;99.90;;;;;;5020133;28;19956;-75
2022/12/17 21:25:04;;;;;;;;;;;-2.50;99.90;;;;;;5020184;28;19909;-75
2022/12/17 21:27:30;;;;;;;;;;;-2.50;99.90;;;;;;5020284;28;19909;-75
2022/12/17 21:29:56;;;;;;;;;;;-2.40;99.90;;;;;;5020187;28;19913;-75
2022/12/17 21:32:21;;;;;;;;;;;-2.40;99.90;;;;;;5002808;28;19905;-75
2022/12/17 21:34:46;;;;;;;;;;;-2.40;99.90;;;;;;5020158;28;19912;-75
2022/12/17 21:37:12;;;;;;;;;;;-2.50;99.90;;;;;;5018343;28;19999;-75
2022/12/17 21:39:38;;;;;;;;;;;-2.50;99.90;;;;;;5017048;28;19925;-75
2022/12/17 21:44:48;;;;;;;;;;;-2.60;99.90;;;;;;5017761;28;19912;-75
2022/12/17 21:47:13;;;;;;;;;;;-2.60;99.90;;;;;;5017550;28;19905;-75
2022/12/17 21:49:39;;;;;;;;;;;-2.60;99.90;;;;;;4999838;28;20367;-75
2022/12/17 21:52:04;;;;;;;;;;;-2.60;99.90;;;;;;5000068;28;19906;-75
2022/12/17 21:54:30;;;;;;;;;;;-2.60;99.90;;;;;;5000099;28;19913;-75
2022/12/17 21:56:55;;;;;;;;;;;-2.50;99.90;;;;;;4999963;28;20536;-75
2022/12/17 21:59:21;;;;;;;;;;;-2.60;99.90;;;;;;5017272;28;19906;-75
2022/12/17 22:01:47;;;;;;;;;;;-2.60;99.90;;;;;;5017310;28;19916;-75
2022/12/17 22:04:12;;;;;;;;;;;-2.50;99.90;;;;;;4999957;28;19905;-75
2022/12/17 22:06:38;;;;;;;;;;;-2.60;99.90;;;;;;5017302;28;19905;-75
2022/12/17 22:09:04;;;;;;;;;;;-2.60;99.90;;;;;;4999170;28;19913;-75
2022/12/17 22:11:30;;;;;;;;;;;-2.50;99.90;;;;;;5017052;28;19924;-75
2022/12/17 22:14:02;;;;;;;;;;;-2.50;99.90;;;;;;4998617;28;19906;-75
2022/12/17 22:16:33;;;;;;;;;;;-2.50;99.90;;;;;;5016738;28;19906;-75
2022/12/17 22:18:59;;;;;;;;;;;-2.50;99.90;;;;;;5017113;28;19940;-75
2022/12/17 22:21:28;;;;;;;;;;;-2.50;99.90;;;;;;4999379;28;19913;-75
2022/12/17 22:23:53;;;;;;;;;;;-2.60;99.90;;;;;;5017028;28;19912;-75
2022/12/17 22:26:19;;;;;;;;;;;-2.50;99.90;;;;;;5017552;28;19909;-75
2022/12/17 22:28:48;;;;;;;;;;;-2.50;99.90;;;;;;5016884;28;19906;-75
2022/12/17 22:33:59;;;;;;;;;;;-2.50;99.90;;;;;;5017433;28;19913;-75
2022/12/17 22:36:28;;;;;;;;;;;-2.50;99.90;;;;;;5016605;28;19905;-75
2022/12/17 22:38:54;;;;;;;;;;;-2.50;99.90;;;;;;4999173;28;19928;-75
2022/12/17 22:44:03;;;;;;;;;;;-2.60;99.90;;;;;;5017624;28;19914;-75
2022/12/17 22:46:30;;;;;;;;;;;-2.60;99.90;;;;;;5016801;28;19909;-75
2022/12/17 22:48:56;;;;;;;;;;;-2.70;99.90;;;;;;5016329;28;20264;-76
2022/12/17 22:51:22;;;;;;;;;;;-2.60;99.90;;;;;;5016327;28;19951;-76
2022/12/17 22:53:48;;;;;;;;;;;-2.70;99.90;;;;;;4998841;28;20000;-75
2022/12/17 22:56:13;;;;;;;;;;;-2.70;99.90;;;;;;5017086;28;19941;-75
2022/12/17 22:58:39;;;;;;;;;;;-2.80;99.90;;;;;;5016807;28;19916;-75
2022/12/17 23:01:04;;;;;;;;;;;-2.80;99.90;;;;;;5015931;28;19912;-75
2022/12/17 23:03:30;;;;;;;;;;;-2.90;99.90;;;;;;5016169;28;19905;-75
2022/12/17 23:06:05;;;;;;;;;;;-2.90;99.90;;;;;;5016563;28;20411;-75
2022/12/17 23:08:31;;;;;;;;;;;-2.90;99.90;;;;;;5015895;28;19914;-75
2022/12/17 23:10:56;;;;;;;;;;;-2.90;99.90;;;;;;5016272;28;20007;-75
2022/12/17 23:13:22;;;;;;;;;;;-2.80;99.90;;;;;;5016627;28;19905;-75
2022/12/17 23:15:47;;;;;;;;;;;-2.90;99.90;;;;;;4998649;28;19936;-76
2022/12/17 23:18:13;;;;;;;;;;;-2.90;99.90;;;;;;5016127;28;19905;-76
2022/12/17 23:20:38;;;;;;;;;;;-2.90;99.90;;;;;;4998402;28;19912;-76
2022/12/17 23:23:04;;;;;;;;;;;-2.90;99.90;;;;;;4997549;28;20291;-76
2022/12/17 23:25:29;;;;;;;;;;;-2.90;99.90;;;;;;5015899;28;19917;-75
2022/12/17 23:27:55;;;;;;;;;;;-3.00;99.90;;;;;;5015866;28;19959;-76
2022/12/17 23:30:20;;;;;;;;;;;-3.00;99.90;;;;;;5015850;28;19936;-75
2022/12/17 23:32:46;;;;;;;;;;;-3.00;99.90;;;;;;5016202;28;19952;-75
2022/12/17 23:35:12;;;;;;;;;;;-3.00;99.90;;;;;;5015539;28;19905;-75
2022/12/17 23:37:39;;;;;;;;;;;-3.00;99.90;;;;;;5015805;28;19951;-75
2022/12/17 23:40:05;;;;;;;;;;;-3.10;99.90;;;;;;4998300;28;19912;-75
2022/12/17 23:42:30;;;;;;;;;;;-3.10;99.90;;;;;;5015449;28;20284;-75
2022/12/17 23:44:56;;;;;;;;;;;-3.10;99.90;;;;;;5015369;28;19905;-75
2022/12/17 23:47:21;;;;;;;;;;;-3.10;99.90;;;;;;5015376;28;20344;-75
2022/12/17 23:49:47;;;;;;;;;;;-3.10;99.90;;;;;;5015032;28;19906;-75
2022/12/17 23:52:12;;;;;;;;;;;-3.20;99.90;;;;;;4997035;28;19968;-75
2022/12/17 23:54:38;;;;;;;;;;;-3.20;99.90;;;;;;5014273;28;20360;-75
2022/12/17 23:57:03;;;;;;;;;;;-3.20;99.90;;;;;;5014898;28;20333;-75
2022/12/17 23:59:28;;;;;;;;;;;-3.20;99.90;;;;;;4996567;28;19905;-75
